createdAt,value
2023-12-21T00:00:12.005Z,36.07
2023-12-21T00:00:43.462Z,36.51
2023-12-21T00:01:14.995Z,36.67
2023-12-21T00:01:46.528Z,36.21
2023-12-21T00:02:17.982Z,36.03
2023-12-21T00:02:49.414Z,36.29
2023-12-21T00:03:20.871Z,36.38
2023-12-21T00:03:52.413Z,35.96
2023-12-21T00:04:24.041Z,36.13
2023-12-21T00:04:55.630Z,36.35
2023-12-21T00:05:27.169Z,36.32
2023-12-21T00:05:58.891Z,36.11
2023-12-21T00:06:30.405Z,36.55
2023-12-21T00:07:01.906Z,36.57
2023-12-21T00:07:33.530Z,36.27
2023-12-21T00:08:05.098Z,36.28
2023-12-21T00:08:36.634Z,36.41
2023-12-21T00:09:08.098Z,36.31
2023-12-21T00:09:39.549Z,36.21
2023-12-21T00:10:11.135Z,36.61
2023-12-21T00:10:42.649Z,36.30
2023-12-21T00:11:14.105Z,36.67
2023-12-21T00:11:45.556Z,36.37
2023-12-21T00:12:16.998Z,36.30
2023-12-21T00:12:48.437Z,36.45
2023-12-21T00:13:20.010Z,35.98
2023-12-21T00:13:51.496Z,36.12
2023-12-21T00:14:22.927Z,36.52
2023-12-21T00:14:54.379Z,36.28
2023-12-21T00:15:25.810Z,36.25
2023-12-21T00:15:57.272Z,36.66
2023-12-21T00:16:30.067Z,36.26
2023-12-21T00:17:01.763Z,36.06
2023-12-21T00:17:33.229Z,36.16
2023-12-21T00:18:04.875Z,36.28
2023-12-21T00:18:36.589Z,36.45
2023-12-21T00:19:08.162Z,36.62
2023-12-21T00:19:39.814Z,36.50
2023-12-21T00:20:11.321Z,36.38
2023-12-21T00:20:42.782Z,36.61
2023-12-21T00:21:14.208Z,36.26
2023-12-21T00:21:45.650Z,36.31
2023-12-21T00:22:17.164Z,35.85
2023-12-21T00:22:48.773Z,36.07
2023-12-21T00:23:20.306Z,36.42
2023-12-21T00:23:51.756Z,36.21
2023-12-21T00:24:23.199Z,36.25
2023-12-21T00:24:54.647Z,36.20
2023-12-21T00:25:26.110Z,36.51
2023-12-21T00:25:57.562Z,36.87
2023-12-21T00:26:29.012Z,36.50
2023-12-21T00:27:00.447Z,36.52
2023-12-21T00:27:31.975Z,37.02
2023-12-21T00:28:03.564Z,36.83
2023-12-21T00:28:35.138Z,36.50
2023-12-21T00:29:06.626Z,36.19
2023-12-21T00:29:38.069Z,36.34
2023-12-21T00:30:09.687Z,36.44
2023-12-21T00:30:41.232Z,36.67
2023-12-21T00:31:12.746Z,36.61
2023-12-21T00:31:44.323Z,36.58
2023-12-21T00:32:15.876Z,36.53
2023-12-21T00:32:47.429Z,36.74
2023-12-21T00:33:19.025Z,36.43
2023-12-21T00:33:50.543Z,36.42
2023-12-21T00:34:22.097Z,36.56
2023-12-21T00:34:53.695Z,36.12
2023-12-21T00:35:25.200Z,36.30
2023-12-21T00:35:56.646Z,36.77
2023-12-21T00:36:28.079Z,36.78
2023-12-21T00:36:59.672Z,36.23
2023-12-21T00:37:31.235Z,36.26
2023-12-21T00:38:02.695Z,36.25
2023-12-21T00:38:34.131Z,36.73
2023-12-21T00:39:05.559Z,36.63
2023-12-21T00:39:37.008Z,37.33
2023-12-21T00:40:08.486Z,36.22
2023-12-21T00:40:40.595Z,36.33
2023-12-21T00:41:12.151Z,36.19
2023-12-21T00:41:43.609Z,36.57
2023-12-21T00:42:15.135Z,36.82
2023-12-21T00:42:46.574Z,36.86
2023-12-21T00:43:18.023Z,36.60
2023-12-21T00:43:49.465Z,36.46
2023-12-21T00:44:20.895Z,36.39
2023-12-21T00:44:52.343Z,36.29
2023-12-21T00:45:23.786Z,36.54
2023-12-21T00:45:55.287Z,36.81
2023-12-21T00:46:26.769Z,36.54
2023-12-21T00:46:58.305Z,36.86
2023-12-21T00:47:29.777Z,36.59
2023-12-21T00:48:01.303Z,36.14
2023-12-21T00:48:32.881Z,36.51
2023-12-21T00:49:04.466Z,36.90
2023-12-21T00:49:36.137Z,36.71
2023-12-21T00:50:07.753Z,36.61
2023-12-21T00:50:39.219Z,36.62
2023-12-21T00:51:10.639Z,36.64
2023-12-21T00:51:42.164Z,36.52
2023-12-21T00:52:13.656Z,36.46
2023-12-21T00:52:45.098Z,36.75
2023-12-21T00:53:16.525Z,36.63
2023-12-21T00:53:47.957Z,36.89
2023-12-21T00:54:19.396Z,36.49
2023-12-21T00:54:50.819Z,37.05
2023-12-21T00:55:22.369Z,36.51
2023-12-21T00:55:53.814Z,36.42
2023-12-21T00:56:25.325Z,36.42
2023-12-21T00:56:56.786Z,36.62
2023-12-21T00:57:28.219Z,36.98
2023-12-21T00:57:59.736Z,36.41
2023-12-21T00:58:31.274Z,36.51
2023-12-21T00:59:02.753Z,36.80
2023-12-21T00:59:34.202Z,36.74
2023-12-21T01:00:05.637Z,36.42
2023-12-21T01:00:37.064Z,37.17
2023-12-21T01:01:08.651Z,36.44
2023-12-21T01:01:40.358Z,37.01
2023-12-21T01:02:11.908Z,36.76
2023-12-21T01:02:43.441Z,36.52
2023-12-21T01:03:14.901Z,36.67
2023-12-21T01:03:46.376Z,36.91
2023-12-21T01:04:17.828Z,37.01
2023-12-21T01:04:49.279Z,37.06
2023-12-21T01:05:20.793Z,36.85
2023-12-21T01:05:52.341Z,36.39
2023-12-21T01:06:23.869Z,36.79
2023-12-21T01:06:55.329Z,36.69
2023-12-21T01:07:26.794Z,36.24
2023-12-21T01:07:58.251Z,37.01
2023-12-21T01:08:29.687Z,36.94
2023-12-21T01:09:01.124Z,36.91
2023-12-21T01:09:32.576Z,36.65
2023-12-21T01:10:04.144Z,36.61
2023-12-21T01:10:35.683Z,37.13
2023-12-21T01:11:07.142Z,36.98
2023-12-21T01:11:38.567Z,37.03
2023-12-21T01:12:09.999Z,36.91
2023-12-21T01:12:41.423Z,36.73
2023-12-21T01:13:12.904Z,36.81
2023-12-21T01:13:44.389Z,37.34
2023-12-21T01:14:15.854Z,37.02
2023-12-21T01:14:47.299Z,36.69
2023-12-21T01:15:18.792Z,36.44
2023-12-21T01:15:50.248Z,36.86
2023-12-21T01:16:21.713Z,36.89
2023-12-21T01:16:53.159Z,36.56
2023-12-21T01:17:24.591Z,36.75
2023-12-21T01:17:56.034Z,37.01
2023-12-21T01:18:27.595Z,36.91
2023-12-21T01:18:59.152Z,36.67
2023-12-21T01:19:30.725Z,36.69
2023-12-21T01:20:02.414Z,36.56
2023-12-21T01:20:34.057Z,37.06
2023-12-21T01:21:05.508Z,37.10
2023-12-21T01:21:36.934Z,36.68
2023-12-21T01:22:08.385Z,37.06
2023-12-21T01:22:40.006Z,36.97
2023-12-21T01:23:11.492Z,36.79
2023-12-21T01:23:42.924Z,36.80
2023-12-21T01:24:14.356Z,36.89
2023-12-21T01:24:45.882Z,36.87
2023-12-21T01:25:17.526Z,37.32
2023-12-21T01:25:48.999Z,37.03
2023-12-21T01:26:20.440Z,36.57
2023-12-21T01:26:51.872Z,36.81
2023-12-21T01:27:31.866Z,37.05
2023-12-21T01:28:04.414Z,37.00
2023-12-21T01:28:35.974Z,36.89
2023-12-21T01:29:07.463Z,36.82
2023-12-21T01:29:38.957Z,37.28
2023-12-21T01:30:10.462Z,37.15
2023-12-21T01:30:42.068Z,36.90
2023-12-21T01:31:13.672Z,37.41
2023-12-21T01:31:45.201Z,37.12
2023-12-21T01:32:16.665Z,36.90
2023-12-21T01:32:48.220Z,37.14
2023-12-21T01:33:19.858Z,37.43
2023-12-21T01:33:51.423Z,37.31
2023-12-21T01:34:23.113Z,36.82
2023-12-21T01:34:54.720Z,37.28
2023-12-21T01:35:26.267Z,36.79
2023-12-21T01:35:57.745Z,36.73
2023-12-21T01:36:31.683Z,37.01
2023-12-21T01:37:03.323Z,37.18
2023-12-21T01:37:34.892Z,36.86
2023-12-21T01:38:06.426Z,36.82
2023-12-21T01:38:37.876Z,36.87
2023-12-21T01:39:09.411Z,37.27
2023-12-21T01:39:40.947Z,37.20
2023-12-21T01:40:12.410Z,37.13
2023-12-21T01:40:43.949Z,36.86
2023-12-21T01:41:15.412Z,37.03
2023-12-21T01:41:46.848Z,37.12
2023-12-21T01:42:18.279Z,37.19
2023-12-21T01:42:50.211Z,37.45
2023-12-21T01:43:21.951Z,37.06
2023-12-21T01:43:53.489Z,37.20
2023-12-21T01:44:25.883Z,37.20
2023-12-21T01:44:58.345Z,37.35
2023-12-21T01:45:29.793Z,37.24
2023-12-21T01:46:01.323Z,36.82
2023-12-21T01:46:32.926Z,37.34
2023-12-21T01:47:04.431Z,37.29
2023-12-21T01:47:35.878Z,37.30
2023-12-21T01:48:07.411Z,37.42
2023-12-21T01:48:39.204Z,36.80
2023-12-21T01:49:10.769Z,37.00
2023-12-21T01:49:42.428Z,37.43
2023-12-21T01:50:13.961Z,36.76
2023-12-21T01:50:45.405Z,36.79
2023-12-21T01:51:16.838Z,36.95
2023-12-21T01:51:48.264Z,36.93
2023-12-21T01:52:19.806Z,37.20
2023-12-21T01:52:51.824Z,37.14
2023-12-21T01:53:23.627Z,37.25
2023-12-21T01:53:55.089Z,37.34
2023-12-21T01:54:26.605Z,37.39
2023-12-21T01:54:58.108Z,36.79
2023-12-21T01:55:29.606Z,37.31
2023-12-21T01:56:01.071Z,36.85
2023-12-21T01:56:32.517Z,37.05
2023-12-21T01:57:03.966Z,37.15
2023-12-21T01:57:35.417Z,37.50
2023-12-21T01:58:07.025Z,37.41
2023-12-21T01:58:38.543Z,37.18
2023-12-21T01:59:10.009Z,37.01
2023-12-21T01:59:41.470Z,37.38
2023-12-21T02:00:12.898Z,37.17
2023-12-21T02:00:44.365Z,37.12
2023-12-21T02:01:15.843Z,37.52
2023-12-21T02:01:47.344Z,37.41
2023-12-21T02:02:18.867Z,36.97
2023-12-21T02:02:50.682Z,37.31
2023-12-21T02:03:22.393Z,37.05
2023-12-21T02:03:53.849Z,37.06
2023-12-21T02:04:25.384Z,37.05
2023-12-21T02:04:56.876Z,37.54
2023-12-21T02:05:28.327Z,37.33
2023-12-21T02:05:59.775Z,37.62
2023-12-21T02:06:31.274Z,37.29
2023-12-21T02:07:02.732Z,37.20
2023-12-21T02:07:34.350Z,36.91
2023-12-21T02:08:05.883Z,37.07
2023-12-21T02:08:37.314Z,37.19
2023-12-21T02:09:08.755Z,37.14
2023-12-21T02:09:40.212Z,37.32
2023-12-21T02:10:11.741Z,37.23
2023-12-21T02:10:44.621Z,37.34
2023-12-21T02:11:17.554Z,37.24
2023-12-21T02:11:49.002Z,37.28
2023-12-21T02:12:20.494Z,37.45
2023-12-21T02:12:51.942Z,37.61
2023-12-21T02:13:23.407Z,37.28
2023-12-21T02:13:54.852Z,37.49
2023-12-21T02:14:26.301Z,36.92
2023-12-21T02:14:57.788Z,37.23
2023-12-21T02:15:29.246Z,37.12
2023-12-21T02:16:00.703Z,37.39
2023-12-21T02:16:32.234Z,37.42
2023-12-21T02:17:03.691Z,37.56
2023-12-21T02:17:35.154Z,37.45
2023-12-21T02:18:06.671Z,37.59
2023-12-21T02:18:38.187Z,37.68
2023-12-21T02:19:09.757Z,37.18
2023-12-21T02:19:41.315Z,37.35
2023-12-21T02:20:12.771Z,37.25
2023-12-21T02:20:44.221Z,37.44
2023-12-21T02:21:15.659Z,37.22
2023-12-21T02:21:47.278Z,37.47
2023-12-21T02:22:18.768Z,37.66
2023-12-21T02:22:50.600Z,37.36
2023-12-21T02:23:22.221Z,37.39
2023-12-21T02:23:53.778Z,37.62
2023-12-21T02:24:25.220Z,37.12
2023-12-21T02:24:56.735Z,37.51
2023-12-21T02:25:28.310Z,37.43
2023-12-21T02:25:59.772Z,37.30
2023-12-21T02:26:31.410Z,37.29
2023-12-21T02:27:02.864Z,37.24
2023-12-21T02:27:34.290Z,37.26
2023-12-21T02:28:05.764Z,37.28
2023-12-21T02:28:37.346Z,37.08
2023-12-21T02:29:08.817Z,37.63
2023-12-21T02:29:40.257Z,37.34
2023-12-21T02:30:11.722Z,37.42
2023-12-21T02:30:43.182Z,37.61
2023-12-21T02:31:14.716Z,37.46
2023-12-21T02:31:46.318Z,37.45
2023-12-21T02:32:17.769Z,37.07
2023-12-21T02:32:49.435Z,37.38
2023-12-21T02:33:21.056Z,37.47
2023-12-21T02:33:52.528Z,37.45
2023-12-21T02:34:24.160Z,37.73
2023-12-21T02:34:55.682Z,37.42
2023-12-21T02:35:27.199Z,37.40
2023-12-21T02:35:58.925Z,37.68
2023-12-21T02:36:30.493Z,37.51
2023-12-21T02:37:02.000Z,37.50
2023-12-21T02:37:33.503Z,37.57
2023-12-21T02:38:04.985Z,37.54
2023-12-21T02:38:36.444Z,37.21
2023-12-21T02:39:07.873Z,37.18
2023-12-21T02:39:39.313Z,37.11
2023-12-21T02:40:10.761Z,37.21
2023-12-21T02:40:42.313Z,37.37
2023-12-21T02:41:13.771Z,37.48
2023-12-21T02:41:45.207Z,37.54
2023-12-21T02:42:16.641Z,37.59
2023-12-21T02:42:48.352Z,36.98
2023-12-21T02:43:20.077Z,37.37
2023-12-21T02:43:51.526Z,37.30
2023-12-21T02:44:22.965Z,37.06
2023-12-21T02:44:54.446Z,37.54
2023-12-21T02:45:25.989Z,37.29
2023-12-21T02:45:57.502Z,37.57
2023-12-21T02:46:28.994Z,37.29
2023-12-21T02:47:00.509Z,37.15
2023-12-21T02:47:31.958Z,37.17
2023-12-21T02:48:03.483Z,37.52
2023-12-21T02:48:34.984Z,37.56
2023-12-21T02:49:06.515Z,37.21
2023-12-21T02:49:38.113Z,36.95
2023-12-21T02:50:09.808Z,37.50
2023-12-21T02:50:41.451Z,37.21
2023-12-21T02:51:12.943Z,37.42
2023-12-21T02:51:44.393Z,37.21
2023-12-21T02:52:15.862Z,37.55
2023-12-21T02:52:47.557Z,37.49
2023-12-21T02:53:19.161Z,37.66
2023-12-21T02:53:50.595Z,37.48
2023-12-21T02:54:22.024Z,37.75
2023-12-21T02:54:53.515Z,37.46
2023-12-21T02:55:25.005Z,37.04
2023-12-21T02:55:56.462Z,37.20
2023-12-21T02:56:27.888Z,37.19
2023-12-21T02:56:59.336Z,37.26
2023-12-21T02:57:30.771Z,37.11
2023-12-21T02:58:02.220Z,37.49
2023-12-21T02:58:33.710Z,37.54
2023-12-21T02:59:05.252Z,37.33
2023-12-21T02:59:36.743Z,37.29
2023-12-21T03:00:08.219Z,37.25
2023-12-21T03:00:39.710Z,37.26
2023-12-21T03:01:11.250Z,37.16
2023-12-21T03:01:42.869Z,37.50
2023-12-21T03:02:14.420Z,37.26
2023-12-21T03:02:46.050Z,37.22
2023-12-21T03:03:17.679Z,37.40
2023-12-21T03:03:49.263Z,37.57
2023-12-21T03:04:20.816Z,37.13
2023-12-21T03:04:52.399Z,36.98
2023-12-21T03:05:23.922Z,37.27
2023-12-21T03:05:55.362Z,37.20
2023-12-21T03:06:26.790Z,37.18
2023-12-21T03:06:58.264Z,37.48
2023-12-21T03:07:29.837Z,37.42
2023-12-21T03:08:01.355Z,37.86
2023-12-21T03:08:32.804Z,37.58
2023-12-21T03:09:04.339Z,37.33
2023-12-21T03:09:35.856Z,37.60
2023-12-21T03:10:07.340Z,37.59
2023-12-21T03:10:38.902Z,37.64
2023-12-21T03:11:10.352Z,36.97
2023-12-21T03:11:41.783Z,37.30
2023-12-21T03:12:13.213Z,37.68
2023-12-21T03:12:44.810Z,37.58
2023-12-21T03:13:16.401Z,37.34
2023-12-21T03:13:47.934Z,37.36
2023-12-21T03:14:19.406Z,37.67
2023-12-21T03:14:50.836Z,37.44
2023-12-21T03:15:22.293Z,37.57
2023-12-21T03:15:53.714Z,37.55
2023-12-21T03:16:25.158Z,36.93
2023-12-21T03:16:56.626Z,37.11
2023-12-21T03:17:28.129Z,37.83
2023-12-21T03:17:59.634Z,37.24
2023-12-21T03:18:31.263Z,37.32
2023-12-21T03:19:02.823Z,36.94
2023-12-21T03:19:34.388Z,37.28
2023-12-21T03:20:05.988Z,37.19
2023-12-21T03:20:37.491Z,37.23
2023-12-21T03:21:08.913Z,37.79
2023-12-21T03:21:40.339Z,37.63
2023-12-21T03:22:11.805Z,37.05
2023-12-21T03:22:43.287Z,37.10
2023-12-21T03:23:14.802Z,37.57
2023-12-21T03:23:46.280Z,36.92
2023-12-21T03:24:17.867Z,37.20
2023-12-21T03:24:49.299Z,37.29
2023-12-21T03:25:20.793Z,37.31
2023-12-21T03:25:52.253Z,37.34
2023-12-21T03:26:23.685Z,37.21
2023-12-21T03:26:55.125Z,37.25
2023-12-21T03:27:26.553Z,37.27
2023-12-21T03:27:58.119Z,37.13
2023-12-21T03:28:29.676Z,37.36
2023-12-21T03:29:01.135Z,37.25
2023-12-21T03:29:32.564Z,37.41
2023-12-21T03:30:04.061Z,36.99
2023-12-21T03:30:35.569Z,37.15
2023-12-21T03:31:07.121Z,37.42
2023-12-21T03:31:38.651Z,37.38
2023-12-21T03:32:10.189Z,37.47
2023-12-21T03:32:41.798Z,37.44
2023-12-21T03:33:13.352Z,37.44
2023-12-21T03:33:44.932Z,37.48
2023-12-21T03:34:16.590Z,36.91
2023-12-21T03:34:48.146Z,37.17
2023-12-21T03:35:19.602Z,37.60
2023-12-21T03:35:51.031Z,37.37
2023-12-21T03:36:22.467Z,37.16
2023-12-21T03:36:53.905Z,37.65
2023-12-21T03:37:25.420Z,37.72
2023-12-21T03:37:56.932Z,37.72
2023-12-21T03:38:28.371Z,37.83
2023-12-21T03:38:59.825Z,37.44
2023-12-21T03:39:31.268Z,37.12
2023-12-21T03:40:02.754Z,37.84
2023-12-21T03:40:34.238Z,37.40
2023-12-21T03:41:05.696Z,37.19
2023-12-21T03:41:37.129Z,36.99
2023-12-21T03:42:08.626Z,37.19
2023-12-21T03:42:40.168Z,37.16
2023-12-21T03:43:11.631Z,37.88
2023-12-21T03:43:43.137Z,37.44
2023-12-21T03:44:14.687Z,37.66
2023-12-21T03:44:46.116Z,37.68
2023-12-21T03:45:17.606Z,37.18
2023-12-21T03:45:49.084Z,37.13
2023-12-21T03:46:20.632Z,37.52
2023-12-21T03:46:52.114Z,37.46
2023-12-21T03:47:23.597Z,37.35
2023-12-21T03:47:55.114Z,37.71
2023-12-21T03:48:26.594Z,37.42
2023-12-21T03:48:58.175Z,37.48
2023-12-21T03:49:29.638Z,37.50
2023-12-21T03:50:01.177Z,37.37
2023-12-21T03:50:32.645Z,37.42
2023-12-21T03:51:04.109Z,37.49
2023-12-21T03:51:35.615Z,37.13
2023-12-21T03:52:07.122Z,37.13
2023-12-21T03:52:38.603Z,37.52
2023-12-21T03:53:10.159Z,37.68
2023-12-21T03:53:41.615Z,37.52
2023-12-21T03:54:13.058Z,37.57
2023-12-21T03:54:44.491Z,37.44
2023-12-21T03:55:15.969Z,37.53
2023-12-21T03:55:47.416Z,37.63
2023-12-21T03:56:18.868Z,37.65
2023-12-21T03:56:50.329Z,37.13
2023-12-21T03:57:21.760Z,37.48
2023-12-21T03:57:53.205Z,37.63
2023-12-21T03:58:24.684Z,37.94
2023-12-21T03:58:56.176Z,37.70
2023-12-21T03:59:27.607Z,37.39
2023-12-21T03:59:59.136Z,37.59
2023-12-21T04:00:30.625Z,37.53
2023-12-21T04:01:02.310Z,37.89
2023-12-21T04:01:33.909Z,37.52
2023-12-21T04:02:05.522Z,37.42
2023-12-21T04:02:37.046Z,37.76
2023-12-21T04:03:08.503Z,37.81
2023-12-21T04:03:40.002Z,37.60
2023-12-21T04:04:11.554Z,37.25
2023-12-21T04:04:43.077Z,37.48
2023-12-21T04:05:14.530Z,37.57
2023-12-21T04:05:46.111Z,37.43
2023-12-21T04:06:17.592Z,37.54
2023-12-21T04:06:49.035Z,37.76
2023-12-21T04:07:20.523Z,37.30
2023-12-21T04:07:51.980Z,37.32
2023-12-21T04:08:23.489Z,37.47
2023-12-21T04:08:54.914Z,37.34
2023-12-21T04:09:26.337Z,37.67
2023-12-21T04:09:57.808Z,37.18
2023-12-21T04:10:29.337Z,37.62
2023-12-21T04:11:00.828Z,37.43
2023-12-21T04:11:32.251Z,37.43
2023-12-21T04:12:03.736Z,37.66
2023-12-21T04:12:35.169Z,37.55
2023-12-21T04:13:06.639Z,37.30
2023-12-21T04:13:38.146Z,37.59
2023-12-21T04:14:09.574Z,37.81
2023-12-21T04:14:41.056Z,37.38
2023-12-21T04:15:12.725Z,37.41
2023-12-21T04:15:44.239Z,37.45
2023-12-21T04:16:15.698Z,37.72
2023-12-21T04:16:47.219Z,37.64
2023-12-21T04:17:18.651Z,37.57
2023-12-21T04:17:50.185Z,37.83
2023-12-21T04:18:21.803Z,37.64
2023-12-21T04:18:53.333Z,37.97
2023-12-21T04:19:24.913Z,37.69
2023-12-21T04:19:56.492Z,37.64
2023-12-21T04:20:27.960Z,37.45
2023-12-21T04:21:01.595Z,37.67
2023-12-21T04:21:33.417Z,37.76
2023-12-21T04:22:04.895Z,37.59
2023-12-21T04:22:36.509Z,37.63
2023-12-21T04:23:08.044Z,37.88
2023-12-21T04:23:39.524Z,37.65
2023-12-21T04:24:10.971Z,37.63
2023-12-21T04:24:42.481Z,37.55
2023-12-21T04:25:13.999Z,37.42
2023-12-21T04:25:45.500Z,37.57
2023-12-21T04:26:16.954Z,37.91
2023-12-21T04:26:48.399Z,37.81
2023-12-21T04:27:19.829Z,37.50
2023-12-21T04:27:51.254Z,37.74
2023-12-21T04:28:22.710Z,37.43
2023-12-21T04:28:54.132Z,38.03
2023-12-21T04:29:25.639Z,37.63
2023-12-21T04:29:57.129Z,37.66
2023-12-21T04:30:28.784Z,37.66
2023-12-21T04:31:00.409Z,37.78
2023-12-21T04:31:32.041Z,37.44
2023-12-21T04:32:03.562Z,37.70
2023-12-21T04:32:35.094Z,37.74
2023-12-21T04:33:06.701Z,37.87
2023-12-21T04:33:38.275Z,37.32
2023-12-21T04:34:09.922Z,37.58
2023-12-21T04:34:41.558Z,37.83
2023-12-21T04:35:13.054Z,37.72
2023-12-21T04:35:44.489Z,37.45
2023-12-21T04:36:15.929Z,37.99
2023-12-21T04:36:47.358Z,37.37
2023-12-21T04:37:18.880Z,37.35
2023-12-21T04:37:50.361Z,37.96
2023-12-21T04:38:21.786Z,37.74
2023-12-21T04:38:53.325Z,37.77
2023-12-21T04:39:24.786Z,38.01
2023-12-21T04:39:56.359Z,37.82
2023-12-21T04:40:27.969Z,37.83
2023-12-21T04:40:59.452Z,37.43
2023-12-21T04:41:30.893Z,37.65
2023-12-21T04:42:02.315Z,37.76
2023-12-21T04:42:33.758Z,37.54
2023-12-21T04:43:05.215Z,37.75
2023-12-21T04:43:36.756Z,38.03
2023-12-21T04:44:08.212Z,37.72
2023-12-21T04:44:39.667Z,37.80
2023-12-21T04:45:11.102Z,37.59
2023-12-21T04:45:42.545Z,38.09
2023-12-21T04:46:13.998Z,37.96
2023-12-21T04:46:45.493Z,37.58
2023-12-21T04:47:23.042Z,37.96
2023-12-21T04:47:55.829Z,37.69
2023-12-21T04:48:27.454Z,38.12
2023-12-21T04:48:59.144Z,38.17
2023-12-21T04:49:30.686Z,37.83
2023-12-21T04:50:02.226Z,38.23
2023-12-21T04:50:33.677Z,37.43
2023-12-21T04:51:05.105Z,37.74
2023-12-21T04:51:36.555Z,37.92
2023-12-21T04:52:08.018Z,37.83
2023-12-21T04:52:39.589Z,37.92
2023-12-21T04:53:11.208Z,37.69
2023-12-21T04:53:42.651Z,37.85
2023-12-21T04:54:14.085Z,37.70
2023-12-21T04:54:45.716Z,37.54
2023-12-21T04:55:17.371Z,37.42
2023-12-21T04:55:48.845Z,37.88
2023-12-21T04:56:20.314Z,38.08
2023-12-21T04:56:51.884Z,38.29
2023-12-21T04:57:23.327Z,37.61
2023-12-21T04:57:54.756Z,37.40
2023-12-21T04:58:26.255Z,37.45
2023-12-21T04:58:57.712Z,37.56
2023-12-21T04:59:29.155Z,37.55
2023-12-21T05:00:00.625Z,37.68
2023-12-21T05:00:32.113Z,37.93
2023-12-21T05:01:03.641Z,38.01
2023-12-21T05:01:35.158Z,38.05
2023-12-21T05:02:06.630Z,37.96
2023-12-21T05:02:38.184Z,37.76
2023-12-21T05:03:09.697Z,37.99
2023-12-21T05:03:41.296Z,37.95
2023-12-21T05:04:12.823Z,37.83
2023-12-21T05:04:44.373Z,37.80
2023-12-21T05:05:15.836Z,37.99
2023-12-21T05:05:47.354Z,37.43
2023-12-21T05:06:18.887Z,37.65
2023-12-21T05:06:50.342Z,37.60
2023-12-21T05:07:21.859Z,37.97
2023-12-21T05:07:53.317Z,37.58
2023-12-21T05:08:24.742Z,37.50
2023-12-21T05:08:56.181Z,38.07
2023-12-21T05:09:27.632Z,37.76
2023-12-21T05:09:59.092Z,37.99
2023-12-21T05:10:30.561Z,37.67
2023-12-21T05:11:02.020Z,37.71
2023-12-21T05:11:33.451Z,37.89
2023-12-21T05:12:05.018Z,37.60
2023-12-21T05:12:36.483Z,37.67
2023-12-21T05:13:07.973Z,37.63
2023-12-21T05:13:39.478Z,37.59
2023-12-21T05:14:10.973Z,38.04
2023-12-21T05:14:42.400Z,37.67
2023-12-21T05:15:13.831Z,37.61
2023-12-21T05:15:45.263Z,37.69
2023-12-21T05:16:16.723Z,37.75
2023-12-21T05:16:48.284Z,38.04
2023-12-21T05:17:19.797Z,38.04
2023-12-21T05:17:51.311Z,37.43
2023-12-21T05:18:22.837Z,37.90
2023-12-21T05:18:54.442Z,37.77
2023-12-21T05:19:26.079Z,37.60
2023-12-21T05:19:57.760Z,37.67
2023-12-21T05:20:29.270Z,37.60
2023-12-21T05:21:00.914Z,37.77
2023-12-21T05:21:32.410Z,37.84
2023-12-21T05:22:03.980Z,37.87
2023-12-21T05:22:35.522Z,37.80
2023-12-21T05:23:06.968Z,37.88
2023-12-21T05:23:38.411Z,37.85
2023-12-21T05:24:09.850Z,37.66
2023-12-21T05:24:41.348Z,37.83
2023-12-21T05:25:12.807Z,37.98
2023-12-21T05:25:44.288Z,37.68
2023-12-21T05:26:15.784Z,37.69
2023-12-21T05:26:47.276Z,38.06
2023-12-21T05:27:18.712Z,37.61
2023-12-21T05:27:50.146Z,37.98
2023-12-21T05:28:21.592Z,37.72
2023-12-21T05:28:53.034Z,37.94
2023-12-21T05:29:24.462Z,37.74
2023-12-21T05:29:55.892Z,37.56
2023-12-21T05:30:27.346Z,37.51
2023-12-21T05:30:58.917Z,37.81
2023-12-21T05:31:30.492Z,37.96
2023-12-21T05:32:01.950Z,37.70
2023-12-21T05:32:33.413Z,38.04
2023-12-21T05:33:04.932Z,37.49
2023-12-21T05:33:36.435Z,37.81
2023-12-21T05:34:08.080Z,37.68
2023-12-21T05:34:42.946Z,38.16
2023-12-21T05:35:14.981Z,37.92
2023-12-21T05:35:46.516Z,37.79
2023-12-21T05:36:17.974Z,37.76
2023-12-21T05:36:49.416Z,37.48
2023-12-21T05:37:20.870Z,37.79
2023-12-21T05:37:52.307Z,37.50
2023-12-21T05:38:23.765Z,37.61
2023-12-21T05:38:55.207Z,37.77
2023-12-21T05:39:26.735Z,37.84
2023-12-21T05:39:58.231Z,37.50
2023-12-21T05:40:29.893Z,38.10
2023-12-21T05:41:01.428Z,37.76
2023-12-21T05:41:32.853Z,37.52
2023-12-21T05:42:04.313Z,37.69
2023-12-21T05:42:35.754Z,37.54
2023-12-21T05:43:07.197Z,38.08
2023-12-21T05:43:38.753Z,37.37
2023-12-21T05:44:10.291Z,37.80
2023-12-21T05:44:41.764Z,37.79
2023-12-21T05:45:13.325Z,38.00
2023-12-21T05:45:44.841Z,38.37
2023-12-21T05:46:16.339Z,37.42
2023-12-21T05:46:47.856Z,37.82
2023-12-21T05:47:19.330Z,38.01
2023-12-21T05:47:50.790Z,37.47
2023-12-21T05:48:22.350Z,37.79
2023-12-21T05:48:53.923Z,37.88
2023-12-21T05:49:25.445Z,37.39
2023-12-21T05:49:57.080Z,37.70
2023-12-21T05:50:28.594Z,37.71
2023-12-21T05:51:00.039Z,38.06
2023-12-21T05:51:31.468Z,37.93
2023-12-21T05:52:02.932Z,37.95
2023-12-21T05:52:34.401Z,37.85
2023-12-21T05:53:05.839Z,37.70
2023-12-21T05:53:37.285Z,37.87
2023-12-21T05:54:08.719Z,37.78
2023-12-21T05:54:40.353Z,37.71
2023-12-21T05:55:11.827Z,38.24
2023-12-21T05:55:43.292Z,37.96
2023-12-21T05:56:14.818Z,37.65
2023-12-21T05:56:46.352Z,37.71
2023-12-21T05:57:17.859Z,37.83
2023-12-21T05:57:49.332Z,37.58
2023-12-21T05:58:20.789Z,37.58
2023-12-21T05:58:52.233Z,37.96
2023-12-21T05:59:23.662Z,37.69
2023-12-21T05:59:55.153Z,37.74
2023-12-21T06:00:26.582Z,37.30
2023-12-21T06:00:58.200Z,37.64
2023-12-21T06:01:30.465Z,37.87
2023-12-21T06:02:03.594Z,37.77
2023-12-21T06:02:35.066Z,37.66
2023-12-21T06:03:06.503Z,37.40
2023-12-21T06:03:37.972Z,37.55
2023-12-21T06:04:09.524Z,38.17
2023-12-21T06:04:41.090Z,37.45
2023-12-21T06:05:12.606Z,37.76
2023-12-21T06:05:44.075Z,37.50
2023-12-21T06:06:15.526Z,37.43
2023-12-21T06:06:46.997Z,37.65
2023-12-21T06:07:18.536Z,37.99
2023-12-21T06:07:50.047Z,38.13
2023-12-21T06:08:21.508Z,37.47
2023-12-21T06:08:53.071Z,37.35
2023-12-21T06:09:24.528Z,37.88
2023-12-21T06:09:55.976Z,37.97
2023-12-21T06:10:27.460Z,37.95
2023-12-21T06:10:58.929Z,37.85
2023-12-21T06:11:30.370Z,37.78
2023-12-21T06:12:01.807Z,38.14
2023-12-21T06:12:33.226Z,37.48
2023-12-21T06:13:04.666Z,37.46
2023-12-21T06:13:36.254Z,38.39
2023-12-21T06:14:07.732Z,38.15
2023-12-21T06:14:39.172Z,38.44
2023-12-21T06:15:10.648Z,38.39
2023-12-21T06:15:42.094Z,37.86
2023-12-21T06:16:13.608Z,37.88
2023-12-21T06:16:45.113Z,37.79
2023-12-21T06:17:16.636Z,37.71
2023-12-21T06:17:48.084Z,38.05
2023-12-21T06:18:19.761Z,38.01
2023-12-21T06:18:51.337Z,37.76
2023-12-21T06:19:22.878Z,38.07
2023-12-21T06:19:54.434Z,37.64
2023-12-21T06:20:25.897Z,38.09
2023-12-21T06:20:57.341Z,37.49
2023-12-21T06:21:28.808Z,37.76
2023-12-21T06:22:00.338Z,37.90
2023-12-21T06:22:31.849Z,37.68
2023-12-21T06:23:03.419Z,38.40
2023-12-21T06:23:34.885Z,37.67
2023-12-21T06:24:06.322Z,37.60
2023-12-21T06:24:37.752Z,37.67
2023-12-21T06:25:09.217Z,37.78
2023-12-21T06:25:40.711Z,37.96
2023-12-21T06:26:12.219Z,38.02
2023-12-21T06:26:43.724Z,38.07
2023-12-21T06:27:15.192Z,38.02
2023-12-21T06:27:46.704Z,37.76
2023-12-21T06:28:18.192Z,38.17
2023-12-21T06:28:49.655Z,38.26
2023-12-21T06:29:21.084Z,37.80
2023-12-21T06:29:52.517Z,37.71
2023-12-21T06:30:23.977Z,37.96
2023-12-21T06:30:55.530Z,37.89
2023-12-21T06:31:27.091Z,37.69
2023-12-21T06:31:58.605Z,37.77
2023-12-21T06:32:30.119Z,37.92
2023-12-21T06:33:01.689Z,37.67
2023-12-21T06:33:33.264Z,37.65
2023-12-21T06:34:04.976Z,37.67
2023-12-21T06:34:36.534Z,37.90
2023-12-21T06:35:08.037Z,37.58
2023-12-21T06:35:39.491Z,37.89
2023-12-21T06:36:10.948Z,38.08
2023-12-21T06:36:42.392Z,38.06
2023-12-21T06:37:13.948Z,37.75
2023-12-21T06:37:45.531Z,37.52
2023-12-21T06:38:16.978Z,37.28
2023-12-21T06:38:48.419Z,37.99
2023-12-21T06:39:19.871Z,37.83
2023-12-21T06:39:51.298Z,37.73
2023-12-21T06:40:22.794Z,37.81
2023-12-21T06:40:54.256Z,37.75
2023-12-21T06:41:25.714Z,37.88
2023-12-21T06:41:57.213Z,37.95
2023-12-21T06:42:28.674Z,37.76
2023-12-21T06:43:00.140Z,37.94
2023-12-21T06:43:31.653Z,37.79
2023-12-21T06:44:03.126Z,37.96
2023-12-21T06:44:34.560Z,37.60
2023-12-21T06:45:06.009Z,37.91
2023-12-21T06:45:37.456Z,37.63
2023-12-21T06:46:08.910Z,37.85